createdAt,value
2022-11-03T00:01:17.074Z,98283.28
2022-11-03T00:03:45.372Z,98292.00
2022-11-03T00:06:15.139Z,98297.38
2022-11-03T00:08:44.113Z,98291.38
2022-11-03T00:11:14.902Z,98281.88
2022-11-03T00:13:44.479Z,98287.75
2022-11-03T00:16:14.135Z,98255.97
2022-11-03T00:18:42.349Z,98295.50
2022-11-03T00:21:12.887Z,98290.00
2022-11-03T00:23:44.589Z,98285.72
2022-11-03T00:26:15.574Z,98299.00
2022-11-03T00:28:45.370Z,98310.41
2022-11-03T00:31:15.935Z,98292.69
2022-11-03T00:33:44.551Z,98291.69
2022-11-03T00:36:14.934Z,98289.56
2022-11-03T00:38:45.394Z,98283.00
2022-11-03T00:41:14.445Z,98289.38
2022-11-03T00:43:43.209Z,98289.56
2022-11-03T00:46:11.947Z,98287.06
2022-11-03T00:48:40.456Z,98289.75
2022-11-03T00:51:10.927Z,97965.56
2022-11-03T00:53:40.512Z,98219.97
2022-11-03T00:56:14.252Z,98217.38
2022-11-03T00:58:43.548Z,98271.59
2022-11-03T01:01:13.404Z,98278.38
2022-11-03T01:04:05.131Z,98279.16
2022-11-03T01:06:51.614Z,98283.56
2022-11-03T01:09:21.679Z,98151.63
2022-11-03T01:11:58.049Z,98274.81
2022-11-03T01:14:27.885Z,98265.38
2022-11-03T01:16:56.414Z,98263.34
2022-11-03T01:19:25.539Z,98176.31
2022-11-03T01:21:53.993Z,98261.47
2022-11-03T01:24:22.744Z,98256.19
2022-11-03T01:26:52.637Z,98265.13
2022-11-03T01:29:21.079Z,98257.16
2022-11-03T01:31:49.368Z,98249.19
2022-11-03T01:34:18.956Z,98250.78
2022-11-03T01:36:48.218Z,98249.13
2022-11-03T01:39:18.595Z,98242.16
2022-11-03T01:41:48.993Z,98242.25
2022-11-03T01:44:36.408Z,98238.09
2022-11-03T01:47:13.232Z,98247.41
2022-11-03T01:49:46.487Z,98222.28
2022-11-03T01:52:22.003Z,98234.31
2022-11-03T01:54:53.247Z,98245.75
2022-11-03T01:57:26.737Z,98240.34
2022-11-03T01:59:59.294Z,98235.56
2022-11-03T02:02:28.854Z,98240.19
2022-11-03T02:05:00.413Z,98204.97
2022-11-03T02:07:35.120Z,98217.97
2022-11-03T02:10:03.755Z,98216.25
2022-11-03T02:12:33.586Z,98231.66
2022-11-03T02:15:08.353Z,98229.94
2022-11-03T02:17:38.724Z,98229.75
2022-11-03T02:20:11.419Z,98215.75
2022-11-03T02:23:01.509Z,98214.00
2022-11-03T02:25:43.083Z,98209.41
2022-11-03T02:28:13.367Z,98199.94
2022-11-03T02:30:46.114Z,98207.19
2022-11-03T02:33:32.482Z,98203.66
2022-11-03T02:36:06.788Z,98143.97
2022-11-03T02:38:39.713Z,98212.03
2022-11-03T02:41:10.674Z,98194.34
2022-11-03T02:43:40.148Z,98199.50
2022-11-03T02:46:09.433Z,98200.53
2022-11-03T02:48:38.046Z,98208.47
2022-11-03T02:51:06.450Z,98216.34
2022-11-03T02:53:41.034Z,98212.88
2022-11-03T02:56:15.461Z,98211.75
2022-11-03T02:58:50.825Z,98211.63
2022-11-03T03:01:24.476Z,98215.13
2022-11-03T03:03:57.064Z,98215.38
2022-11-03T03:06:30.596Z,98226.06
2022-11-03T03:09:02.999Z,98221.09
2022-11-03T03:11:39.206Z,98206.28
2022-11-03T03:14:13.738Z,98204.16
2022-11-03T03:16:49.595Z,98218.66
2022-11-03T03:19:24.562Z,98199.41
2022-11-03T03:21:55.877Z,98213.13
2022-11-03T03:24:32.814Z,98214.19
2022-11-03T03:27:05.257Z,98211.00
2022-11-03T03:29:39.285Z,98210.34
2022-11-03T03:32:11.581Z,98212.25
2022-11-03T03:34:43.178Z,98207.16
2022-11-03T03:37:14.676Z,98210.59
2022-11-03T03:39:47.260Z,98209.78
2022-11-03T03:42:18.283Z,98160.63
2022-11-03T03:44:48.146Z,98203.06
2022-11-03T03:47:20.697Z,98211.16
2022-11-03T03:49:49.049Z,98204.16
2022-11-03T03:52:17.894Z,98201.59
2022-11-03T03:54:46.319Z,98197.44
2022-11-03T03:57:18.555Z,98165.72
2022-11-03T03:59:48.107Z,98201.94
2022-11-03T04:02:17.336Z,98203.72
2022-11-03T04:04:45.684Z,98202.88
2022-11-03T04:07:31.167Z,98201.22
2022-11-03T04:09:59.344Z,98209.84
2022-11-03T04:12:46.096Z,98201.09
2022-11-03T04:15:32.173Z,98200.13
2022-11-03T04:18:17.661Z,98198.16
2022-11-03T04:21:03.088Z,98192.00
2022-11-03T04:23:31.363Z,98191.00
2022-11-03T04:26:00.613Z,98182.56
2022-11-03T04:28:30.737Z,98186.88
2022-11-03T04:31:00.824Z,98193.56
2022-11-03T04:33:31.034Z,98199.44
2022-11-03T04:36:00.677Z,98196.03
2022-11-03T04:38:30.636Z,98191.78
2022-11-03T04:41:00.251Z,98198.03
2022-11-03T04:43:36.045Z,98187.50
2022-11-03T04:46:04.337Z,98185.00
2022-11-03T04:48:32.778Z,98192.97
2022-11-03T04:51:03.959Z,98191.06
2022-11-03T04:53:34.450Z,98183.41
2022-11-03T04:56:07.229Z,98193.75
2022-11-03T04:58:37.853Z,98188.31
2022-11-03T05:01:11.463Z,98190.19
2022-11-03T05:03:42.308Z,98187.75
2022-11-03T05:06:14.073Z,98180.75
2022-11-03T05:08:43.175Z,98181.66
2022-11-03T05:11:18.636Z,98172.88
2022-11-03T05:13:48.707Z,98103.97
2022-11-03T05:16:17.997Z,98116.97
2022-11-03T05:18:49.946Z,98175.63
2022-11-03T05:21:20.663Z,98175.56
2022-11-03T05:23:52.018Z,98155.75
2022-11-03T05:26:24.335Z,98166.81
2022-11-03T05:28:56.613Z,98165.19
2022-11-03T05:31:29.068Z,98150.50
2022-11-03T05:33:59.866Z,98167.81
2022-11-03T05:36:30.674Z,98166.16
2022-11-03T05:39:06.779Z,98055.88
2022-11-03T05:41:37.004Z,98153.06
2022-11-03T05:44:23.561Z,98165.03
2022-11-03T05:46:52.145Z,98167.06
2022-11-03T05:49:20.543Z,98142.16
2022-11-03T05:51:48.884Z,98158.13
2022-11-03T05:54:22.167Z,98169.63
2022-11-03T05:56:51.254Z,98167.94
2022-11-03T05:59:26.221Z,98168.00
2022-11-03T06:01:55.331Z,98168.97
2022-11-03T06:04:28.236Z,98149.91
2022-11-03T06:07:03.114Z,98168.19
2022-11-03T06:09:34.874Z,98160.53
2022-11-03T06:12:06.964Z,98169.97
2022-11-03T06:14:38.714Z,98143.44
2022-11-03T06:17:08.814Z,98178.63
2022-11-03T06:19:40.037Z,98177.53
2022-11-03T06:22:15.183Z,98173.28
2022-11-03T06:24:43.854Z,98178.72
2022-11-03T06:27:15.754Z,98173.44
2022-11-03T06:29:51.515Z,98182.25
2022-11-03T06:32:20.188Z,98186.56
2022-11-03T06:34:51.301Z,98165.72
2022-11-03T06:37:25.786Z,98156.28
2022-11-03T06:40:02.079Z,98197.63
2022-11-03T06:42:33.685Z,98193.63
2022-11-03T06:45:13.964Z,98197.63
2022-11-03T06:47:42.599Z,98191.63
2022-11-03T06:50:23.975Z,98182.94
2022-11-03T06:53:01.204Z,98114.75
2022-11-03T06:55:31.575Z,98201.78
2022-11-03T06:58:01.947Z,98199.13
2022-11-03T07:00:34.690Z,98193.81
2022-11-03T07:03:10.420Z,98190.09
2022-11-03T07:05:40.527Z,98203.06
2022-11-03T07:08:22.543Z,98185.47
2022-11-03T07:10:52.035Z,98197.28
2022-11-03T07:13:29.258Z,98190.97
2022-11-03T07:15:59.314Z,98168.28
2022-11-03T07:18:31.459Z,98186.84
2022-11-03T07:21:00.370Z,98181.84
2022-11-03T07:23:32.161Z,98167.16
2022-11-03T07:26:02.798Z,98168.00
2022-11-03T07:28:37.186Z,98187.84
2022-11-03T07:31:16.639Z,98183.31
2022-11-03T07:33:45.307Z,98182.44
2022-11-03T07:36:18.161Z,98172.69
2022-11-03T07:38:51.547Z,98172.50
2022-11-03T07:41:22.344Z,98142.00
2022-11-03T07:43:58.256Z,98167.75
2022-11-03T07:46:28.666Z,98164.84
2022-11-03T07:48:58.931Z,98162.72
2022-11-03T07:51:31.035Z,98123.66
2022-11-03T07:54:05.165Z,98162.00
2022-11-03T07:56:37.114Z,98131.41
2022-11-03T07:59:15.270Z,98124.13
2022-11-03T08:01:47.580Z,98143.44
2022-11-03T08:04:20.488Z,98136.78
2022-11-03T08:06:49.529Z,98144.75
2022-11-03T08:09:17.794Z,98140.97
2022-11-03T08:11:47.247Z,98116.00
2022-11-03T08:14:15.546Z,98097.88
2022-11-03T08:16:45.248Z,98136.59
2022-11-03T08:19:13.517Z,98128.03
2022-11-03T08:21:41.927Z,98129.16
2022-11-03T08:24:10.237Z,98118.41
2022-11-03T08:26:38.549Z,98118.16
2022-11-03T08:29:06.845Z,98113.34
2022-11-03T08:31:35.137Z,98104.38
2022-11-03T08:34:04.954Z,98109.66
2022-11-03T08:36:33.205Z,98097.31
2022-11-03T08:39:01.503Z,98093.97
2022-11-03T08:41:29.859Z,98090.31
2022-11-03T08:43:58.452Z,98085.56
2022-11-03T08:46:26.686Z,98057.75
2022-11-03T08:48:55.039Z,98060.59
2022-11-03T08:51:24.725Z,98078.13
2022-11-03T08:53:54.264Z,98060.47
2022-11-03T08:56:22.965Z,98067.88
2022-11-03T08:58:51.449Z,97795.25
2022-11-03T09:01:19.731Z,98055.75
2022-11-03T09:03:48.533Z,98060.03
2022-11-03T09:06:16.972Z,98044.25
2022-11-03T09:11:34.914Z,98056.09
2022-11-03T09:14:03.331Z,98063.03
2022-11-03T09:16:31.598Z,98046.53
2022-11-03T09:18:59.807Z,98048.38
2022-11-03T09:21:28.037Z,98034.56
2022-11-03T09:23:59.584Z,98030.81
2022-11-03T09:26:28.149Z,98039.22
2022-11-03T09:28:56.409Z,98038.13
2022-11-03T09:31:26.207Z,98035.16
2022-11-03T09:33:54.407Z,98019.66
2022-11-03T09:36:22.629Z,98029.88
2022-11-03T09:38:51.046Z,98029.00
2022-11-03T09:41:27.599Z,98026.25
2022-11-03T09:43:58.834Z,98029.44
2022-11-03T09:46:28.219Z,98033.78
2022-11-03T09:48:57.055Z,98024.56
2022-11-03T09:51:28.624Z,98024.28
2022-11-03T09:53:59.744Z,98005.47
2022-11-03T09:56:29.638Z,98006.91
2022-11-03T09:58:57.940Z,98005.13
2022-11-03T10:01:26.362Z,97986.81
2022-11-03T10:04:00.935Z,97995.59
2022-11-03T10:06:29.164Z,97991.50
2022-11-03T10:08:57.608Z,97950.88
2022-11-03T10:11:25.896Z,97975.38
2022-11-03T10:13:57.751Z,97968.78
2022-11-03T10:16:27.714Z,97954.13
2022-11-03T10:18:56.368Z,97954.34
2022-11-03T10:21:29.009Z,97935.94
2022-11-03T10:23:57.418Z,97948.66
2022-11-03T10:26:25.654Z,97951.16
2022-11-03T10:29:04.509Z,97946.47
2022-11-03T10:31:34.945Z,97927.59
2022-11-03T10:34:03.754Z,97928.38
2022-11-03T10:36:33.459Z,97882.91
2022-11-03T10:39:21.880Z,97913.44
2022-11-03T10:41:57.816Z,97900.00
2022-11-03T10:44:29.325Z,97896.41
2022-11-03T10:46:59.237Z,97891.50
2022-11-03T10:49:29.680Z,97893.78
2022-11-03T10:52:17.916Z,97878.56
2022-11-03T10:54:46.234Z,97887.25
2022-11-03T10:57:14.920Z,97854.97
2022-11-03T10:59:47.284Z,97875.25
2022-11-03T11:02:19.542Z,97866.97
2022-11-03T11:04:49.795Z,97856.81
2022-11-03T11:07:23.513Z,97861.75
2022-11-03T11:09:52.316Z,97863.19
2022-11-03T11:12:23.939Z,97846.16
2022-11-03T11:15:01.529Z,97865.50
2022-11-03T11:17:48.163Z,97824.19
2022-11-03T11:20:37.667Z,97808.69
2022-11-03T11:23:53.020Z,97828.16
2022-11-03T11:26:42.359Z,97826.88
2022-11-03T11:29:41.027Z,97821.66
2022-11-03T11:32:42.481Z,97817.50
2022-11-03T11:35:16.745Z,97815.84
2022-11-03T11:37:45.599Z,97792.75
2022-11-03T11:40:16.041Z,97792.72
2022-11-03T11:43:23.824Z,97803.00
2022-11-03T11:46:35.114Z,97798.44
2022-11-03T11:49:17.789Z,97804.16
2022-11-03T11:51:48.171Z,97793.34
2022-11-03T11:54:20.595Z,97791.94
2022-11-03T11:56:51.325Z,97779.00
2022-11-03T11:59:25.820Z,97774.47
2022-11-03T12:01:56.747Z,97701.69
2022-11-03T12:04:29.365Z,97766.00
2022-11-03T12:06:59.065Z,97756.19
2022-11-03T12:09:28.599Z,97751.72
2022-11-03T12:12:00.663Z,97742.72
2022-11-03T12:14:36.073Z,97740.84
2022-11-03T12:17:35.354Z,97738.81
2022-11-03T12:20:35.908Z,97696.38
2022-11-03T12:23:05.716Z,97725.81
2022-11-03T12:25:37.160Z,97717.69
2022-11-03T12:28:05.730Z,97709.13
2022-11-03T12:30:39.412Z,97698.22
2022-11-03T12:33:08.347Z,97713.00
2022-11-03T12:35:36.889Z,97708.03
2022-11-03T12:38:06.568Z,97703.78
2022-11-03T12:40:34.795Z,97688.72
2022-11-03T12:43:03.127Z,97698.22
2022-11-03T12:45:31.376Z,97700.66
2022-11-03T12:47:59.647Z,97692.22
2022-11-03T12:50:28.045Z,97684.34
2022-11-03T12:52:56.335Z,97679.13
2022-11-03T12:57:59.243Z,97653.63
2022-11-03T13:00:27.529Z,97650.97
2022-11-03T13:02:55.932Z,97626.63
2022-11-03T13:05:25.588Z,97621.75
2022-11-03T13:07:54.369Z,97539.69
2022-11-03T13:10:22.600Z,97600.78
2022-11-03T13:12:52.339Z,97632.16
2022-11-03T13:15:20.588Z,97619.53
2022-11-03T13:18:12.187Z,97613.22
2022-11-03T13:20:37.869Z,97614.06
2022-11-03T13:23:07.141Z,97609.91
2022-11-03T13:25:35.584Z,97543.09
2022-11-03T13:28:05.575Z,97594.66
2022-11-03T13:30:34.776Z,97599.00
2022-11-03T13:33:02.997Z,97591.50
2022-11-03T13:35:31.310Z,97585.25
2022-11-03T13:37:59.552Z,97580.13
2022-11-03T13:40:57.161Z,97581.38
2022-11-03T13:43:17.623Z,97577.41
2022-11-03T13:45:46.665Z,97571.19
2022-11-03T13:51:03.708Z,97569.94
2022-11-03T13:56:22.220Z,97556.25
2022-11-03T14:01:41.693Z,97573.34
2022-11-03T14:06:59.359Z,97562.84
2022-11-03T14:09:27.681Z,97564.81
2022-11-03T14:12:13.441Z,97577.03
2022-11-03T14:14:43.574Z,97578.22
2022-11-03T14:17:12.447Z,97565.22
2022-11-03T14:19:45.967Z,97560.75
2022-11-03T14:22:17.035Z,97562.81
2022-11-03T14:24:45.363Z,97564.13
2022-11-03T14:27:15.886Z,97560.16
2022-11-03T14:29:46.329Z,97560.69
2022-11-03T14:32:14.573Z,97550.66
2022-11-03T14:34:43.878Z,97559.13
2022-11-03T14:37:13.049Z,97557.66
2022-11-03T14:39:41.771Z,97562.59
2022-11-03T14:42:15.481Z,97559.72
2022-11-03T14:44:47.338Z,97545.34
2022-11-03T14:47:17.766Z,97539.88
2022-11-03T14:49:47.142Z,97536.25
2022-11-03T14:52:16.428Z,97535.94
2022-11-03T14:54:44.797Z,97529.41
2022-11-03T14:57:13.074Z,97532.59
2022-11-03T14:59:41.919Z,97403.78
2022-11-03T15:02:11.973Z,97517.31
2022-11-03T15:04:40.273Z,97508.22
2022-11-03T15:07:08.559Z,97521.91
2022-11-03T15:09:36.774Z,97508.06
2022-11-03T15:12:05.343Z,97498.66
2022-11-03T15:14:33.979Z,97501.59
2022-11-03T15:17:02.226Z,97492.16
2022-11-03T15:19:31.898Z,97505.50
2022-11-03T15:22:00.164Z,97505.81
2022-11-03T15:27:16.695Z,97478.94
2022-11-03T15:29:45.074Z,97492.94
2022-11-03T15:32:13.337Z,97497.63
2022-11-03T15:34:43.095Z,97489.56
2022-11-03T15:37:11.383Z,97495.22
2022-11-03T15:39:39.755Z,97460.72
2022-11-03T15:42:08.024Z,97478.34
2022-11-03T15:44:36.334Z,97470.59
2022-11-03T15:47:04.648Z,97467.59
2022-11-03T15:49:33.129Z,97464.03
2022-11-03T15:52:02.910Z,97467.78
2022-11-03T15:54:31.145Z,97463.41
2022-11-03T15:56:59.553Z,97462.63
2022-11-03T15:59:27.939Z,97445.69
2022-11-03T16:02:08.396Z,97433.16
2022-11-03T16:04:44.953Z,97442.88
2022-11-03T16:07:14.695Z,97459.47
2022-11-03T16:09:43.187Z,97461.41
2022-11-03T16:12:11.450Z,97453.56
2022-11-03T16:14:40.006Z,97454.66
2022-11-03T16:17:08.319Z,97449.59
2022-11-03T16:19:36.590Z,97454.94
2022-11-03T16:22:05.075Z,97410.53
2022-11-03T16:24:35.643Z,97444.81
2022-11-03T16:27:05.004Z,97443.09
2022-11-03T16:29:33.318Z,97440.63
2022-11-03T16:32:01.573Z,97443.56
2022-11-03T16:34:30.135Z,97418.06
2022-11-03T16:36:58.688Z,97423.03
2022-11-03T16:39:27.029Z,97414.44
2022-11-03T16:41:57.110Z,97431.63
2022-11-03T16:44:26.050Z,97415.59
2022-11-03T16:46:54.664Z,97413.09
2022-11-03T16:49:23.520Z,97389.34
2022-11-03T16:51:52.395Z,97399.59
2022-11-03T16:54:21.929Z,97382.53
2022-11-03T16:56:54.476Z,97375.84
2022-11-03T16:59:26.711Z,97386.88
2022-11-03T17:01:57.129Z,97391.28
2022-11-03T17:04:26.724Z,97386.22
2022-11-03T17:06:55.389Z,97393.28
2022-11-03T17:09:23.635Z,97394.19
2022-11-03T17:11:51.895Z,97393.28
2022-11-03T17:14:20.742Z,97382.00
2022-11-03T17:16:51.345Z,97379.59
2022-11-03T17:19:20.011Z,97278.66
2022-11-03T17:21:48.551Z,97362.50
2022-11-03T17:24:17.545Z,97370.28
2022-11-03T17:26:56.214Z,97380.81
2022-11-03T17:29:30.824Z,97381.72
2022-11-03T17:32:00.676Z,97382.06
2022-11-03T17:34:29.363Z,97387.31
2022-11-03T17:36:59.176Z,97368.38
2022-11-03T17:39:33.775Z,97374.28
2022-11-03T17:42:14.899Z,97373.38
2022-11-03T17:44:43.645Z,97362.84
2022-11-03T17:47:15.299Z,97363.97
2022-11-03T17:49:44.763Z,97353.56
2022-11-03T17:52:16.254Z,97354.47
2022-11-03T17:54:45.345Z,97350.06
2022-11-03T17:57:18.394Z,97328.56
2022-11-03T17:59:51.140Z,97308.63
2022-11-03T18:02:24.536Z,97337.25
2022-11-03T18:05:00.249Z,97328.72
2022-11-03T18:07:31.124Z,97336.03
2022-11-03T18:10:00.307Z,97334.53
2022-11-03T18:12:54.356Z,97331.47
2022-11-03T18:15:26.265Z,97336.34
2022-11-03T18:17:57.847Z,97319.72
2022-11-03T18:20:29.530Z,97323.78
2022-11-03T18:23:11.963Z,97313.78
2022-11-03T18:25:41.105Z,97313.94
2022-11-03T18:28:11.666Z,97278.25
2022-11-03T18:30:44.254Z,97298.13
2022-11-03T18:33:20.454Z,97306.66
2022-11-03T18:35:50.451Z,97307.50
2022-11-03T18:38:19.925Z,97301.53
2022-11-03T18:40:49.733Z,97294.69
2022-11-03T18:43:21.740Z,97256.13
2022-11-03T18:45:52.957Z,97290.28
2022-11-03T18:48:24.559Z,97289.63
2022-11-03T18:50:56.819Z,97273.34
2022-11-03T18:53:29.533Z,97285.50
2022-11-03T18:56:01.986Z,97255.38
2022-11-03T18:58:31.374Z,97258.56
2022-11-03T19:01:01.222Z,97261.09
2022-11-03T19:03:32.681Z,97264.50
2022-11-03T19:06:02.710Z,97256.19
2022-11-03T19:08:36.801Z,97206.53
2022-11-03T19:11:06.675Z,97255.84
2022-11-03T19:13:38.945Z,97241.97
2022-11-03T19:16:17.449Z,97224.56
2022-11-03T19:18:48.953Z,97215.03
2022-11-03T19:21:19.797Z,97230.41
2022-11-03T19:23:51.923Z,97229.63
2022-11-03T19:26:31.498Z,97213.38
2022-11-03T19:29:06.984Z,97197.94
2022-11-03T19:31:40.318Z,97210.75
2022-11-03T19:34:16.633Z,97201.34
2022-11-03T19:36:48.969Z,97189.72
2022-11-03T19:39:27.872Z,97094.16
2022-11-03T19:42:15.226Z,97185.72
2022-11-03T19:44:44.864Z,97166.94
2022-11-03T19:47:18.924Z,97176.41
2022-11-03T19:49:50.498Z,97144.19
2022-11-03T19:52:22.230Z,97172.56
2022-11-03T19:54:53.457Z,97174.94
2022-11-03T19:57:22.933Z,97162.38
2022-11-03T19:59:55.154Z,97142.16
2022-11-03T20:02:24.812Z,97117.44
2022-11-03T20:04:56.644Z,97040.66
2022-11-03T20:07:31.606Z,97125.06
2022-11-03T20:10:08.639Z,97113.53
2022-11-03T20:12:38.239Z,97144.84
2022-11-03T20:15:16.863Z,97111.09
2022-11-03T20:17:47.516Z,97054.44
2022-11-03T20:20:21.542Z,97111.50
2022-11-03T20:22:53.613Z,97162.59
2022-11-03T20:25:27.425Z,97144.91
2022-11-03T20:27:58.708Z,97120.16
2022-11-03T20:30:30.253Z,97137.31
2022-11-03T20:32:59.863Z,97134.00
2022-11-03T20:35:32.644Z,97131.44
2022-11-03T20:38:02.329Z,97120.06
2022-11-03T20:40:33.939Z,97094.34
2022-11-03T20:43:08.041Z,97114.91
2022-11-03T20:45:38.824Z,97108.84
2022-11-03T20:48:13.241Z,97115.03
2022-11-03T20:50:44.269Z,97100.59
2022-11-03T20:53:17.057Z,97101.09
2022-11-03T20:55:47.648Z,97105.44
2022-11-03T20:58:19.159Z,97090.66
2022-11-03T21:00:49.658Z,97087.03
2022-11-03T21:03:37.961Z,97067.22
2022-11-03T21:06:11.704Z,97066.63
2022-11-03T21:08:41.147Z,97090.72
2022-11-03T21:11:27.921Z,97090.72
2022-11-03T21:14:00.343Z,97063.41
2022-11-03T21:16:47.941Z,97071.22
2022-11-03T21:19:35.515Z,97087.72
2022-11-03T21:22:30.734Z,97087.44
2022-11-03T21:25:02.557Z,97065.34
2022-11-03T21:27:31.433Z,97079.44
2022-11-03T21:30:00.633Z,97068.09
2022-11-03T21:32:29.427Z,97071.72
2022-11-03T21:34:58.893Z,97065.72
2022-11-03T21:37:28.610Z,97042.56
2022-11-03T21:39:57.377Z,97048.88
2022-11-03T21:42:43.185Z,97049.56
2022-11-03T21:45:12.818Z,97043.41
2022-11-03T21:48:01.168Z,97041.56
2022-11-03T21:50:28.379Z,97043.53
2022-11-03T21:52:59.019Z,97030.00
2022-11-03T21:55:28.634Z,97042.75
2022-11-03T21:57:56.885Z,97012.97
2022-11-03T22:00:25.155Z,97032.44
2022-11-03T22:02:53.436Z,97020.94
2022-11-03T22:05:21.737Z,97019.97
2022-11-03T22:07:50.003Z,97000.75
2022-11-03T22:10:19.805Z,97002.03
2022-11-03T22:12:48.025Z,97003.22
2022-11-03T22:15:33.527Z,96993.06
2022-11-03T22:18:02.171Z,96997.81
2022-11-03T22:20:48.047Z,96865.25
2022-11-03T22:23:34.299Z,96968.00
2022-11-03T22:26:21.693Z,96977.47
2022-11-03T22:29:09.973Z,96951.06
2022-11-03T22:31:43.093Z,96962.81
2022-11-03T22:34:28.762Z,96928.28
2022-11-03T22:36:57.212Z,96971.66
2022-11-03T22:39:42.948Z,96958.78
2022-11-03T22:42:31.554Z,96980.13
2022-11-03T22:45:17.014Z,96974.50
2022-11-03T22:47:45.318Z,96959.47
2022-11-03T22:50:13.569Z,96940.31
2022-11-03T22:52:41.775Z,96974.53
2022-11-03T22:55:09.255Z,96955.22
2022-11-03T22:57:38.949Z,96951.91
2022-11-03T23:00:08.094Z,96954.53
2022-11-03T23:02:36.414Z,96945.66
2022-11-03T23:05:04.991Z,96946.50
2022-11-03T23:07:38.415Z,96930.31
2022-11-03T23:10:10.191Z,96938.84
2022-11-03T23:12:39.880Z,96923.41
2022-11-03T23:15:26.722Z,96926.69
2022-11-03T23:18:12.296Z,96884.53
2022-11-03T23:20:57.803Z,96920.47
2022-11-03T23:23:43.258Z,96897.78
2022-11-03T23:26:11.815Z,96884.94
2022-11-03T23:28:41.957Z,96896.66
2022-11-03T23:31:10.614Z,96831.84
2022-11-03T23:33:39.585Z,96901.53
2022-11-03T23:36:10.089Z,96891.88
2022-11-03T23:38:39.413Z,96893.66
2022-11-03T23:41:09.434Z,96889.38
2022-11-03T23:43:37.855Z,96879.06
2022-11-03T23:46:36.675Z,96873.81
2022-11-03T23:49:05.505Z,96856.63
2022-11-03T23:51:35.098Z,96881.13
2022-11-03T23:54:04.499Z,96876.50
2022-11-03T23:56:54.257Z,96874.09
2022-11-03T23:59:22.820Z,96870.22
